createdAt,value
2023-05-14T00:03:43.965Z,11.21
2023-05-14T00:07:46.992Z,11.12
2023-05-14T00:11:51.247Z,11.07
2023-05-14T00:15:54.170Z,11.17
2023-05-14T00:19:57.078Z,11.13
2023-05-14T00:23:59.957Z,11.07
2023-05-14T00:28:04.218Z,10.83
2023-05-14T00:32:07.588Z,10.70
2023-05-14T00:36:10.935Z,10.61
2023-05-14T00:40:14.197Z,10.52
2023-05-14T00:44:18.427Z,10.58
2023-05-14T00:48:21.904Z,10.47
2023-05-14T00:52:25.074Z,10.54
2023-05-14T00:56:29.170Z,10.57
2023-05-14T01:00:33.460Z,10.52
2023-05-14T01:04:36.486Z,10.48
2023-05-14T01:08:44.092Z,10.38
2023-05-14T01:12:51.781Z,10.45
2023-05-14T01:16:58.853Z,10.42
2023-05-14T01:21:02.871Z,10.47
2023-05-14T01:25:08.057Z,10.38
2023-05-14T01:29:14.995Z,10.30
2023-05-14T01:33:19.220Z,10.10
2023-05-14T01:37:22.868Z,10.02
2023-05-14T01:41:27.613Z,9.83
2023-05-14T01:45:31.180Z,9.97
2023-05-14T01:49:34.068Z,10.09
2023-05-14T01:53:36.931Z,9.89
2023-05-14T01:57:41.508Z,9.81
2023-05-14T02:01:44.647Z,9.82
2023-05-14T02:05:47.885Z,9.76
2023-05-14T02:09:50.785Z,9.82
2023-05-14T02:13:55.065Z,9.84
2023-05-14T02:17:58.000Z,9.71
2023-05-14T02:22:01.125Z,9.72
2023-05-14T02:26:04.031Z,9.39
2023-05-14T02:30:09.075Z,9.26
2023-05-14T02:34:12.396Z,9.20
2023-05-14T02:38:15.265Z,9.21
2023-05-14T02:42:18.130Z,9.24
2023-05-14T02:46:22.389Z,9.21
2023-05-14T02:50:27.058Z,9.20
2023-05-14T02:54:29.935Z,9.29
2023-05-14T02:58:32.833Z,9.51
2023-05-14T03:02:37.226Z,9.44
2023-05-14T03:06:40.771Z,9.43
2023-05-14T03:10:43.902Z,9.44
2023-05-14T03:14:46.772Z,9.15
2023-05-14T03:18:51.077Z,9.11
2023-05-14T03:22:54.522Z,9.14
2023-05-14T03:26:57.412Z,9.09
2023-05-14T03:31:00.283Z,8.96
2023-05-14T03:35:04.638Z,8.99
2023-05-14T03:39:09.554Z,8.88
2023-05-14T03:43:12.533Z,8.95
2023-05-14T03:47:15.627Z,8.99
2023-05-14T03:51:19.980Z,8.92
2023-05-14T03:55:22.969Z,8.85
2023-05-14T03:59:25.809Z,8.88
2023-05-14T04:03:29.983Z,8.90
2023-05-14T04:07:34.641Z,8.76
2023-05-14T04:11:37.560Z,8.68
2023-05-14T04:15:40.421Z,8.66
2023-05-14T04:19:43.749Z,8.63
2023-05-14T04:23:47.941Z,8.66
2023-05-14T04:27:50.945Z,8.60
2023-05-14T04:31:54.730Z,8.64
2023-05-14T04:35:57.675Z,8.75
2023-05-14T04:40:02.057Z,8.68
2023-05-14T04:44:05.199Z,8.72
2023-05-14T04:48:08.711Z,8.95
2023-05-14T04:52:11.701Z,9.09
2023-05-14T04:56:15.948Z,9.09
2023-05-14T05:00:19.257Z,9.35
2023-05-14T05:04:23.942Z,9.41
2023-05-14T05:08:27.310Z,9.58
2023-05-14T05:12:31.539Z,9.44
2023-05-14T05:16:34.838Z,9.56
2023-05-14T05:20:37.747Z,9.59
2023-05-14T05:24:40.600Z,9.60
2023-05-14T05:28:44.885Z,9.72
2023-05-14T05:32:48.189Z,9.93
2023-05-14T05:36:51.259Z,10.02
2023-05-14T05:40:54.146Z,10.14
2023-05-14T05:44:58.353Z,10.34
2023-05-14T05:49:01.233Z,10.50
2023-05-14T05:53:04.128Z,10.65
2023-05-14T05:57:07.131Z,10.93
2023-05-14T06:01:13.293Z,11.11
2023-05-14T06:05:16.925Z,11.28
2023-05-14T06:09:19.853Z,11.49
2023-05-14T06:13:22.713Z,11.53
2023-05-14T06:17:27.252Z,11.54
2023-05-14T06:21:30.141Z,11.60
2023-05-14T06:25:32.978Z,11.72
2023-05-14T06:29:35.871Z,12.02
2023-05-14T06:33:40.079Z,12.32
2023-05-14T06:37:42.923Z,12.39
2023-05-14T06:41:45.772Z,12.63
2023-05-14T06:45:51.367Z,12.72
2023-05-14T06:49:56.999Z,12.98
2023-05-14T06:53:59.855Z,13.19
2023-05-14T06:58:02.796Z,13.53
2023-05-14T07:02:05.683Z,13.41
2023-05-14T07:06:10.866Z,13.62
2023-05-14T07:10:15.364Z,13.68
2023-05-14T07:14:18.349Z,14.00
2023-05-14T07:18:21.318Z,14.23
2023-05-14T07:22:25.785Z,14.62
2023-05-14T07:26:28.746Z,14.67
2023-05-14T07:30:31.585Z,15.07
2023-05-14T07:34:34.696Z,15.15
2023-05-14T07:38:39.028Z,15.33
2023-05-14T07:42:41.938Z,15.58
2023-05-14T07:46:44.793Z,15.87
2023-05-14T07:50:47.929Z,16.12
2023-05-14T07:54:52.664Z,16.17
2023-05-14T07:58:56.042Z,16.65
2023-05-14T08:02:59.202Z,16.82
2023-05-14T08:07:02.351Z,17.37
2023-05-14T08:11:06.766Z,18.00
2023-05-14T08:15:10.194Z,18.15
2023-05-14T08:19:13.673Z,20.09
2023-05-14T08:23:16.770Z,19.65
2023-05-14T08:27:21.673Z,18.83
2023-05-14T08:31:24.669Z,19.40
2023-05-14T08:35:27.624Z,18.74
2023-05-14T08:39:30.674Z,19.86
2023-05-14T08:43:39.362Z,20.88
2023-05-14T08:47:42.333Z,18.85
2023-05-14T08:51:45.878Z,18.63
2023-05-14T08:55:48.857Z,19.22
2023-05-14T08:59:53.200Z,20.91
2023-05-14T09:03:56.249Z,22.31
2023-05-14T09:07:59.244Z,22.74
2023-05-14T09:12:02.213Z,23.78
2023-05-14T09:16:06.966Z,23.20
2023-05-14T09:20:10.710Z,21.46
2023-05-14T09:24:19.783Z,23.77
2023-05-14T09:28:24.453Z,23.40
2023-05-14T09:32:36.111Z,21.33
2023-05-14T09:36:39.406Z,21.10
2023-05-14T09:40:42.816Z,20.93
2023-05-14T09:44:47.236Z,20.21
2023-05-14T09:48:51.544Z,20.57
2023-05-14T09:52:56.224Z,20.99
2023-05-14T09:56:59.541Z,20.84
2023-05-14T10:01:02.913Z,21.86
2023-05-14T10:05:08.487Z,22.37
2023-05-14T10:09:13.445Z,22.25
2023-05-14T10:13:20.646Z,22.89
2023-05-14T10:17:27.376Z,24.46
2023-05-14T10:21:33.357Z,24.45
2023-05-14T10:25:37.129Z,22.29
2023-05-14T10:29:42.423Z,23.11
2023-05-14T10:33:50.511Z,22.07
2023-05-14T10:37:55.254Z,22.25
2023-05-14T10:41:58.593Z,22.30
2023-05-14T10:46:03.191Z,23.58
2023-05-14T10:50:07.976Z,25.50
2023-05-14T10:54:13.676Z,22.96
2023-05-14T10:58:17.153Z,23.92
2023-05-14T11:02:21.852Z,25.75
2023-05-14T11:06:27.535Z,22.66
2023-05-14T11:10:32.209Z,22.65
2023-05-14T11:14:35.316Z,23.97
2023-05-14T11:18:39.047Z,25.86
2023-05-14T11:22:43.372Z,25.25
2023-05-14T11:26:47.959Z,23.93
2023-05-14T11:30:51.217Z,23.78
2023-05-14T11:34:54.693Z,24.23
2023-05-14T11:38:58.015Z,24.37
2023-05-14T11:43:02.774Z,25.39
2023-05-14T11:47:08.662Z,22.48
2023-05-14T11:51:11.759Z,24.80
2023-05-14T11:55:15.007Z,24.38
2023-05-14T11:59:19.901Z,24.47
2023-05-14T12:03:26.506Z,23.17
2023-05-14T12:07:30.495Z,23.50
2023-05-14T12:11:33.747Z,25.19
2023-05-14T12:15:38.096Z,26.28
2023-05-14T12:19:42.691Z,24.27
2023-05-14T12:23:45.697Z,23.72
2023-05-14T12:27:48.969Z,23.23
2023-05-14T12:31:53.575Z,23.11
2023-05-14T12:36:07.365Z,22.46
2023-05-14T12:40:17.263Z,23.08
2023-05-14T12:44:22.684Z,22.31
2023-05-14T12:48:27.458Z,22.76
2023-05-14T12:52:37.803Z,23.91
2023-05-14T12:56:42.642Z,23.81
2023-05-14T13:00:45.752Z,23.59
2023-05-14T13:04:50.092Z,25.40
2023-05-14T13:08:53.392Z,25.81
2023-05-14T13:12:56.642Z,25.60
2023-05-14T13:17:00.525Z,24.15
2023-05-14T13:21:06.752Z,24.72
2023-05-14T13:25:10.785Z,25.22
2023-05-14T13:29:13.729Z,24.61
2023-05-14T13:33:16.610Z,23.47
2023-05-14T13:37:21.113Z,22.80
2023-05-14T13:41:24.107Z,23.02
2023-05-14T13:45:27.220Z,23.24
2023-05-14T13:49:30.624Z,24.06
2023-05-14T13:53:35.321Z,23.85
2023-05-14T13:57:39.947Z,23.68
2023-05-14T14:01:43.812Z,24.03
2023-05-14T14:05:47.172Z,24.68
2023-05-14T14:09:52.081Z,23.65
2023-05-14T14:13:55.395Z,24.46
2023-05-14T14:17:58.597Z,23.74
2023-05-14T14:22:02.023Z,23.63
2023-05-14T14:26:06.570Z,23.83
2023-05-14T14:30:15.554Z,24.19
2023-05-14T14:34:18.632Z,23.18
2023-05-14T14:38:21.861Z,23.20
2023-05-14T14:42:26.504Z,23.29
2023-05-14T14:46:29.637Z,23.00
2023-05-14T14:50:32.858Z,23.15
2023-05-14T14:54:36.554Z,23.24
2023-05-14T14:58:41.018Z,23.28
2023-05-14T15:02:45.169Z,23.47
2023-05-14T15:06:48.543Z,23.32
2023-05-14T15:10:51.892Z,23.39
2023-05-14T15:14:56.574Z,22.83
2023-05-14T15:18:59.760Z,22.78
2023-05-14T15:23:02.940Z,22.71
2023-05-14T15:27:06.187Z,22.93
2023-05-14T15:31:10.633Z,22.71
2023-05-14T15:35:13.762Z,22.84
2023-05-14T15:39:17.188Z,22.42
2023-05-14T15:43:20.538Z,22.64
2023-05-14T15:47:25.902Z,22.22
2023-05-14T15:51:28.908Z,22.55
2023-05-14T15:55:32.289Z,22.41
2023-05-14T15:59:35.689Z,22.21
2023-05-14T16:03:40.121Z,21.76
2023-05-14T16:07:43.723Z,22.12
2023-05-14T16:11:46.892Z,22.17
2023-05-14T16:15:50.220Z,22.10
2023-05-14T16:19:56.250Z,21.46
2023-05-14T16:23:59.864Z,21.83
2023-05-14T16:28:03.052Z,22.31
2023-05-14T16:32:06.539Z,22.08
2023-05-14T16:36:11.207Z,22.07
2023-05-14T16:40:16.180Z,21.90
2023-05-14T16:44:19.296Z,21.61
2023-05-14T16:48:23.955Z,21.64
2023-05-14T16:52:28.648Z,21.62
2023-05-14T16:56:32.473Z,21.66
2023-05-14T17:00:35.745Z,21.39
2023-05-14T17:04:42.496Z,21.33
2023-05-14T17:08:47.577Z,21.20
2023-05-14T17:12:50.873Z,21.29
2023-05-14T17:16:55.673Z,21.19
2023-05-14T17:20:59.028Z,20.96
2023-05-14T17:25:03.639Z,20.64
2023-05-14T17:29:07.519Z,20.80
2023-05-14T17:33:11.715Z,20.69
2023-05-14T17:37:15.308Z,20.42
2023-05-14T17:41:19.839Z,20.25
2023-05-14T17:45:23.206Z,20.08
2023-05-14T17:49:26.521Z,19.93
2023-05-14T17:53:30.254Z,19.85
2023-05-14T17:57:35.148Z,19.85
2023-05-14T18:01:38.076Z,19.60
2023-05-14T18:05:41.018Z,19.48
2023-05-14T18:09:44.072Z,19.31
2023-05-14T18:13:48.914Z,19.31
2023-05-14T18:17:53.025Z,19.27
2023-05-14T18:21:56.370Z,19.15
2023-05-14T18:25:59.583Z,19.04
2023-05-14T18:30:04.306Z,18.86
2023-05-14T18:34:07.966Z,18.88
2023-05-14T18:38:12.090Z,18.71
2023-05-14T18:42:16.852Z,18.60
2023-05-14T18:46:21.779Z,18.46
2023-05-14T18:50:24.934Z,18.34
2023-05-14T18:54:28.091Z,18.22
2023-05-14T18:58:31.443Z,18.12
2023-05-14T19:02:36.468Z,18.06
2023-05-14T19:06:40.485Z,18.00
2023-05-14T19:10:43.945Z,17.86
2023-05-14T19:14:47.088Z,17.77
2023-05-14T19:18:51.944Z,17.66
2023-05-14T19:22:55.800Z,17.55
2023-05-14T19:26:59.551Z,17.55
2023-05-14T19:31:02.777Z,17.47
2023-05-14T19:35:07.702Z,17.31
2023-05-14T19:39:10.979Z,17.18
2023-05-14T19:43:14.144Z,17.11
2023-05-14T19:47:17.426Z,17.08
2023-05-14T19:51:25.536Z,17.11
2023-05-14T19:55:28.582Z,16.99
2023-05-14T19:59:31.684Z,16.87
2023-05-14T20:03:34.895Z,16.76
2023-05-14T20:07:40.551Z,16.67
2023-05-14T20:11:43.753Z,16.59
2023-05-14T20:15:46.796Z,16.48
2023-05-14T20:19:49.733Z,16.47
2023-05-14T20:23:54.546Z,16.37
2023-05-14T20:27:57.663Z,16.29
2023-05-14T20:32:00.753Z,16.28
2023-05-14T20:36:04.534Z,16.25
2023-05-14T20:40:12.429Z,16.16
2023-05-14T20:44:16.786Z,16.06
2023-05-14T20:48:22.150Z,15.97
2023-05-14T20:52:25.340Z,15.91
2023-05-14T20:56:30.560Z,15.83
2023-05-14T21:00:33.833Z,15.84
2023-05-14T21:04:37.229Z,15.81
2023-05-14T21:08:40.569Z,15.68
2023-05-14T21:12:45.163Z,15.57
2023-05-14T21:16:48.330Z,15.50
2023-05-14T21:20:51.748Z,15.44
2023-05-14T21:24:55.643Z,15.39
2023-05-14T21:29:00.402Z,15.40
2023-05-14T21:33:03.576Z,15.37
2023-05-14T21:37:07.816Z,15.28
2023-05-14T21:41:10.949Z,15.26
2023-05-14T21:45:15.808Z,15.16
2023-05-14T21:49:19.031Z,15.10
2023-05-14T21:53:24.374Z,15.04
2023-05-14T21:57:28.637Z,15.06
2023-05-14T22:01:38.568Z,15.01
2023-05-14T22:05:49.361Z,14.87
2023-05-14T22:09:52.917Z,14.83
2023-05-14T22:13:56.244Z,14.76
2023-05-14T22:18:00.732Z,14.65
2023-05-14T22:22:03.948Z,14.60
2023-05-14T22:26:07.303Z,14.50
2023-05-14T22:30:10.630Z,14.36
2023-05-14T22:34:15.045Z,14.29
2023-05-14T22:38:20.375Z,14.17
2023-05-14T22:42:24.104Z,14.10
2023-05-14T22:46:27.339Z,14.04
2023-05-14T22:50:31.714Z,13.96
2023-05-14T22:54:34.787Z,13.88
2023-05-14T22:58:37.698Z,13.84
2023-05-14T23:02:40.853Z,13.87
2023-05-14T23:06:45.714Z,13.80
2023-05-14T23:10:48.752Z,13.72
2023-05-14T23:14:51.918Z,13.65
2023-05-14T23:18:55.218Z,13.61
2023-05-14T23:22:59.726Z,13.57
2023-05-14T23:27:03.417Z,13.49
2023-05-14T23:31:06.558Z,13.48
2023-05-14T23:35:09.710Z,13.41
2023-05-14T23:39:14.110Z,13.41
2023-05-14T23:43:17.278Z,13.36
2023-05-14T23:47:20.621Z,13.32
2023-05-14T23:51:24.279Z,13.29
2023-05-14T23:55:29.349Z,13.18
2023-05-14T23:59:32.412Z,13.19
